KBFF/BFF METAR and TAF weather

Enter ICAO airport designator
Station Type Date Time Source
KBFF METAR 2020/01/19 22:53 UTC NOAA

KBFF 192253Z AUTO 30006KT 10SM CLR 07/M08 A3038 RMK AO2 SLP318 T00721083


Station Type Date Time Source
KBFF Decoded METAR 2020/01/19 22:53 UTC NOAA

SCOTTSBLUFF HEILIG FIELD, NE, United States (KBFF) 41-52N 103-36W 1203M
Jan 19, 2020 - 05:53 PM EST / 2020.01.19 2253 UTC
Wind: from the WNW (300 degrees) at 7 MPH (6 KT):0
Visibility: 10 mile(s):0
Sky conditions: clear
Temperature: 45.0 F (7.2 C)
Dew Point: 17.1 F (-8.3 C)
Relative Humidity: 32%
Pressure (altimeter): 30.38 in. Hg (1028 hPa)
ob: KBFF 192253Z AUTO 30006KT 10SM CLR 07/M08 A3038 RMK AO2 SLP318 T00721083
cycle: 23

Station Type Date Time Source
KBFF TAF 2020/01/19 18:24 UTC NOAA

TAF KBFF 191721Z 1918/2018 31008KT P6SM SCT150
FM191900 31008KT P6SM SKC
FM200500 34005KT P6SM SKC

Example: see airport list